createdAt,value
2022-12-08T00:00:18.000Z,91.70
2022-12-08T00:01:18.000Z,91.60
2022-12-08T00:02:18.000Z,91.60
2022-12-08T00:03:18.000Z,91.49
2022-12-08T00:04:17.000Z,91.35
2022-12-08T00:05:17.000Z,91.49
2022-12-08T00:05:17.000Z,91.49
2022-12-08T00:06:17.000Z,91.49
2022-12-08T00:06:17.000Z,91.49
2022-12-08T00:07:17.000Z,91.49
2022-12-08T00:07:17.000Z,91.49
2022-12-08T00:08:17.000Z,91.60
2022-12-08T00:08:17.000Z,91.60
2022-12-08T00:09:17.000Z,91.39
2022-12-08T00:09:17.000Z,91.39
2022-12-08T00:10:17.000Z,91.18
2022-12-08T00:11:17.000Z,91.28
2022-12-08T00:12:17.000Z,91.24
2022-12-08T00:13:17.000Z,91.28
2022-12-08T00:14:17.000Z,91.24
2022-12-08T00:15:17.000Z,91.28
2022-12-08T00:16:17.000Z,91.24
2022-12-08T00:17:17.000Z,91.24
2022-12-08T00:18:17.000Z,91.24
2022-12-08T00:19:17.000Z,91.14
2022-12-08T00:20:17.000Z,91.28
2022-12-08T00:21:17.000Z,91.24
2022-12-08T00:22:17.000Z,91.39
2022-12-08T00:23:17.000Z,91.24
2022-12-08T00:24:17.000Z,91.24
2022-12-08T00:25:17.000Z,91.35
2022-12-08T00:26:17.000Z,91.24
2022-12-08T00:27:17.000Z,91.35
2022-12-08T00:28:17.000Z,91.35
2022-12-08T00:29:17.000Z,91.45
2022-12-08T00:30:17.000Z,91.45
2022-12-08T00:31:17.000Z,91.35
2022-12-08T00:32:17.000Z,91.35
2022-12-08T00:33:17.000Z,91.35
2022-12-08T00:34:17.000Z,91.45
2022-12-08T00:35:17.000Z,91.45
2022-12-08T00:36:17.000Z,91.66
2022-12-08T00:37:17.000Z,91.76
2022-12-08T00:38:17.000Z,91.86
2022-12-08T00:39:17.000Z,91.86
2022-12-08T00:40:17.000Z,91.86
2022-12-08T00:41:17.000Z,91.76
2022-12-08T00:42:17.000Z,91.76
2022-12-08T00:43:17.000Z,91.86
2022-12-08T00:44:17.000Z,91.86
2022-12-08T00:45:17.000Z,91.97
2022-12-08T00:46:17.000Z,92.18
2022-12-08T00:47:17.000Z,92.28
2022-12-08T00:48:17.000Z,92.18
2022-12-08T00:49:17.000Z,92.07
2022-12-08T00:50:17.000Z,92.01
2022-12-08T00:51:17.000Z,92.11
2022-12-08T00:52:17.000Z,92.28
2022-12-08T00:53:17.000Z,92.28
2022-12-08T00:54:17.000Z,92.28
2022-12-08T00:55:17.000Z,92.38
2022-12-08T00:56:17.000Z,92.32
2022-12-08T00:57:17.000Z,92.38
2022-12-08T00:58:17.000Z,92.38
2022-12-08T00:59:17.000Z,92.38
2022-12-08T01:00:17.000Z,92.43
2022-12-08T01:01:17.000Z,92.38
2022-12-08T01:02:17.000Z,92.28
2022-12-08T01:03:17.000Z,92.43
2022-12-08T01:04:17.000Z,92.38
2022-12-08T01:05:17.000Z,92.53
2022-12-08T01:06:17.000Z,92.43
2022-12-08T01:07:17.000Z,92.32
2022-12-08T01:08:17.000Z,92.32
2022-12-08T01:09:17.000Z,92.28
2022-12-08T01:10:17.000Z,92.22
2022-12-08T01:11:17.000Z,92.22
2022-12-08T01:12:17.000Z,92.22
2022-12-08T01:13:17.000Z,92.01
2022-12-08T01:14:17.000Z,92.01
2022-12-08T01:15:17.000Z,92.22
2022-12-08T01:16:17.000Z,92.22
2022-12-08T01:17:17.000Z,92.22
2022-12-08T01:18:17.000Z,92.11
2022-12-08T01:19:17.000Z,92.11
2022-12-08T01:20:17.000Z,92.01
2022-12-08T01:21:17.000Z,92.01
2022-12-08T01:22:17.000Z,92.01
2022-12-08T01:23:17.000Z,92.11
2022-12-08T01:24:17.000Z,92.11
2022-12-08T01:25:17.000Z,92.11
2022-12-08T01:26:17.000Z,92.11
2022-12-08T01:27:17.000Z,92.01
2022-12-08T01:28:17.000Z,91.91
2022-12-08T01:29:17.000Z,91.80
2022-12-08T01:30:17.000Z,91.80
2022-12-08T01:31:17.000Z,91.70
2022-12-08T01:32:17.000Z,91.80
2022-12-08T01:33:17.000Z,91.70
2022-12-08T01:34:17.000Z,91.70
2022-12-08T01:35:17.000Z,91.60
2022-12-08T01:36:17.000Z,91.60
2022-12-08T01:37:17.000Z,91.60
2022-12-08T01:38:17.000Z,91.60
2022-12-08T01:39:17.000Z,91.60
2022-12-08T01:40:17.000Z,91.70
2022-12-08T01:41:17.000Z,91.70
2022-12-08T01:42:17.000Z,91.70
2022-12-08T01:43:17.000Z,91.70
2022-12-08T01:44:17.000Z,91.70
2022-12-08T01:45:17.000Z,91.70
2022-12-08T01:46:17.000Z,91.49
2022-12-08T01:47:17.000Z,91.49
2022-12-08T01:48:17.000Z,91.39
2022-12-08T01:49:17.000Z,91.49
2022-12-08T01:50:16.000Z,91.49
2022-12-08T01:51:16.000Z,91.39
2022-12-08T01:52:16.000Z,91.18
2022-12-08T01:53:16.000Z,91.18
2022-12-08T01:54:16.000Z,91.18
2022-12-08T01:55:16.000Z,91.18
2022-12-08T01:56:16.000Z,91.18
2022-12-08T01:57:16.000Z,91.28
2022-12-08T01:58:16.000Z,91.18
2022-12-08T01:59:16.000Z,91.08
2022-12-08T02:00:16.000Z,91.08
2022-12-08T02:01:16.000Z,90.97
2022-12-08T02:02:16.000Z,90.97
2022-12-08T02:03:16.000Z,90.87
2022-12-08T02:04:16.000Z,90.87
2022-12-08T02:05:16.000Z,90.77
2022-12-08T02:06:16.000Z,90.77
2022-12-08T02:07:16.000Z,90.77
2022-12-08T02:08:16.000Z,90.66
2022-12-08T02:09:16.000Z,90.56
2022-12-08T02:10:16.000Z,90.56
2022-12-08T02:11:16.000Z,90.56
2022-12-08T02:12:16.000Z,90.56
2022-12-08T02:13:16.000Z,90.45
2022-12-08T02:14:16.000Z,90.45
2022-12-08T02:15:16.000Z,90.45
2022-12-08T02:16:16.000Z,90.56
2022-12-08T02:17:16.000Z,90.56
2022-12-08T02:18:16.000Z,90.56
2022-12-08T02:19:16.000Z,90.56
2022-12-08T02:20:16.000Z,90.66
2022-12-08T02:21:16.000Z,90.56
2022-12-08T02:22:16.000Z,90.56
2022-12-08T02:23:16.000Z,90.56
2022-12-08T02:24:16.000Z,90.56
2022-12-08T02:25:16.000Z,90.45
2022-12-08T02:26:16.000Z,90.45
2022-12-08T02:27:16.000Z,90.45
2022-12-08T02:28:16.000Z,90.45
2022-12-08T02:29:16.000Z,90.35
2022-12-08T02:30:16.000Z,90.35
2022-12-08T02:31:16.000Z,90.45
2022-12-08T02:32:16.000Z,90.60
2022-12-08T02:33:16.000Z,90.56
2022-12-08T02:34:16.000Z,90.56
2022-12-08T02:35:16.000Z,90.56
2022-12-08T02:36:16.000Z,90.45
2022-12-08T02:37:16.000Z,90.35
2022-12-08T02:38:16.000Z,90.45
2022-12-08T02:39:16.000Z,90.45
2022-12-08T02:40:16.000Z,90.56
2022-12-08T02:41:16.000Z,90.56
2022-12-08T02:42:16.000Z,90.56
2022-12-08T02:43:16.000Z,90.45
2022-12-08T02:44:16.000Z,90.56
2022-12-08T02:45:16.000Z,90.56
2022-12-08T02:46:16.000Z,90.56
2022-12-08T02:47:16.000Z,90.56
2022-12-08T02:48:16.000Z,90.56
2022-12-08T02:49:16.000Z,90.56
2022-12-08T02:50:16.000Z,90.45
2022-12-08T02:51:16.000Z,90.35
2022-12-08T02:52:16.000Z,90.25
2022-12-08T02:53:16.000Z,90.25
2022-12-08T02:54:16.000Z,90.35
2022-12-08T02:55:16.000Z,90.35
2022-12-08T02:56:16.000Z,90.35
2022-12-08T02:57:16.000Z,90.25
2022-12-08T02:58:16.000Z,90.35
2022-12-08T02:59:16.000Z,90.35
2022-12-08T03:00:16.000Z,90.35
2022-12-08T03:01:16.000Z,90.45
2022-12-08T03:02:16.000Z,90.35
2022-12-08T03:03:16.000Z,90.14
2022-12-08T03:04:16.000Z,90.14
2022-12-08T03:05:16.000Z,90.04
2022-12-08T03:06:16.000Z,90.04
2022-12-08T03:07:16.000Z,90.14
2022-12-08T03:08:16.000Z,90.25
2022-12-08T03:09:16.000Z,90.25
2022-12-08T03:10:16.000Z,90.25
2022-12-08T03:11:16.000Z,90.35
2022-12-08T03:12:16.000Z,90.35
2022-12-08T03:13:16.000Z,90.35
2022-12-08T03:14:16.000Z,90.35
2022-12-08T03:15:16.000Z,90.35
2022-12-08T03:16:16.000Z,90.45
2022-12-08T03:17:16.000Z,90.45
2022-12-08T03:18:16.000Z,90.56
2022-12-08T03:19:16.000Z,90.45
2022-12-08T03:20:16.000Z,90.35
2022-12-08T03:21:16.000Z,90.45
2022-12-08T03:22:16.000Z,90.45
2022-12-08T03:23:16.000Z,90.35
2022-12-08T03:24:16.000Z,90.35
2022-12-08T03:25:16.000Z,90.35
2022-12-08T03:26:16.000Z,90.35
2022-12-08T03:27:16.000Z,90.35
2022-12-08T03:28:16.000Z,90.35
2022-12-08T03:29:16.000Z,90.35
2022-12-08T03:30:16.000Z,90.35
2022-12-08T03:31:16.000Z,90.45
2022-12-08T03:32:16.000Z,90.35
2022-12-08T03:33:16.000Z,90.35
2022-12-08T03:34:16.000Z,90.35
2022-12-08T03:35:16.000Z,90.25
2022-12-08T03:36:15.000Z,90.25
2022-12-08T03:37:15.000Z,90.25
2022-12-08T03:38:15.000Z,90.14
2022-12-08T03:39:15.000Z,90.04
2022-12-08T03:40:15.000Z,90.14
2022-12-08T03:41:15.000Z,90.14
2022-12-08T03:42:15.000Z,90.14
2022-12-08T03:43:15.000Z,90.14
2022-12-08T03:44:15.000Z,90.14
2022-12-08T03:45:15.000Z,90.14
2022-12-08T03:46:15.000Z,90.08
2022-12-08T03:47:15.000Z,90.08
2022-12-08T03:48:15.000Z,90.14
2022-12-08T03:49:15.000Z,90.14
2022-12-08T03:50:15.000Z,90.29
2022-12-08T03:51:15.000Z,90.14
2022-12-08T03:52:15.000Z,90.19
2022-12-08T03:53:15.000Z,90.19
2022-12-08T03:54:15.000Z,90.29
2022-12-08T03:55:15.000Z,90.29
2022-12-08T03:56:15.000Z,90.29
2022-12-08T03:57:15.000Z,90.08
2022-12-08T03:58:15.000Z,90.19
2022-12-08T03:59:15.000Z,90.19
2022-12-08T04:00:15.000Z,90.19
2022-12-08T04:01:15.000Z,90.19
2022-12-08T04:02:15.000Z,90.19
2022-12-08T04:03:15.000Z,90.19
2022-12-08T04:04:15.000Z,90.19
2022-12-08T04:05:15.000Z,90.29
2022-12-08T04:06:15.000Z,90.39
2022-12-08T04:07:15.000Z,90.29
2022-12-08T04:08:15.000Z,90.19
2022-12-08T04:09:15.000Z,90.19
2022-12-08T04:10:15.000Z,90.29
2022-12-08T04:11:15.000Z,90.29
2022-12-08T04:12:15.000Z,90.29
2022-12-08T04:13:15.000Z,90.08
2022-12-08T04:14:15.000Z,90.08
2022-12-08T04:15:15.000Z,89.98
2022-12-08T04:16:15.000Z,89.98
2022-12-08T04:17:15.000Z,89.98
2022-12-08T04:18:15.000Z,89.98
2022-12-08T04:19:15.000Z,89.98
2022-12-08T04:20:15.000Z,89.98
2022-12-08T04:21:15.000Z,89.98
2022-12-08T04:22:15.000Z,89.87
2022-12-08T04:23:15.000Z,89.87
2022-12-08T04:24:15.000Z,89.98
2022-12-08T04:25:15.000Z,89.98
2022-12-08T04:26:15.000Z,89.98
2022-12-08T04:27:15.000Z,89.98
2022-12-08T04:28:15.000Z,90.08
2022-12-08T04:29:15.000Z,90.19
2022-12-08T04:30:15.000Z,90.19
2022-12-08T04:31:15.000Z,90.19
2022-12-08T04:32:15.000Z,90.19
2022-12-08T04:33:15.000Z,90.29
2022-12-08T04:34:15.000Z,90.29
2022-12-08T04:35:15.000Z,90.39
2022-12-08T04:36:15.000Z,90.44
2022-12-08T04:37:15.000Z,90.50
2022-12-08T04:38:15.000Z,90.54
2022-12-08T04:39:15.000Z,90.54
2022-12-08T04:40:15.000Z,90.64
2022-12-08T04:41:15.000Z,90.81
2022-12-08T04:42:15.000Z,90.70
2022-12-08T04:43:15.000Z,90.85
2022-12-08T04:44:15.000Z,90.85
2022-12-08T04:45:15.000Z,90.75
2022-12-08T04:46:15.000Z,90.75
2022-12-08T04:47:15.000Z,90.75
2022-12-08T04:48:15.000Z,90.70
2022-12-08T04:49:15.000Z,90.75
2022-12-08T04:50:15.000Z,90.70
2022-12-08T04:51:15.000Z,90.70
2022-12-08T04:52:15.000Z,90.85
2022-12-08T04:53:15.000Z,90.81
2022-12-08T04:54:15.000Z,90.81
2022-12-08T04:55:15.000Z,90.70
2022-12-08T04:56:15.000Z,90.70
2022-12-08T04:57:15.000Z,90.75
2022-12-08T04:58:15.000Z,90.85
2022-12-08T04:59:15.000Z,90.85
2022-12-08T05:00:15.000Z,90.70
2022-12-08T05:01:15.000Z,90.75
2022-12-08T05:02:15.000Z,90.70
2022-12-08T05:03:15.000Z,90.70
2022-12-08T05:04:15.000Z,90.70
2022-12-08T05:05:15.000Z,90.70
2022-12-08T05:06:15.000Z,90.70
2022-12-08T05:07:15.000Z,90.70
2022-12-08T05:08:15.000Z,90.70
2022-12-08T05:09:15.000Z,90.60
2022-12-08T05:10:15.000Z,90.81
2022-12-08T05:11:15.000Z,90.81
2022-12-08T05:12:15.000Z,90.70
2022-12-08T05:13:15.000Z,90.70
2022-12-08T05:14:15.000Z,90.70
2022-12-08T05:15:15.000Z,90.60
2022-12-08T05:16:15.000Z,90.70
2022-12-08T05:17:15.000Z,90.70
2022-12-08T05:18:15.000Z,90.60
2022-12-08T05:19:15.000Z,90.60
2022-12-08T05:20:15.000Z,90.50
2022-12-08T05:21:15.000Z,90.50
2022-12-08T05:22:15.000Z,90.50
2022-12-08T05:23:14.000Z,90.60
2022-12-08T05:24:14.000Z,90.60
2022-12-08T05:25:14.000Z,90.60
2022-12-08T05:26:14.000Z,90.70
2022-12-08T05:27:14.000Z,90.70
2022-12-08T05:28:14.000Z,90.70
2022-12-08T05:29:14.000Z,90.70
2022-12-08T05:30:14.000Z,90.70
2022-12-08T05:31:14.000Z,90.70
2022-12-08T05:32:14.000Z,90.81
2022-12-08T05:33:14.000Z,90.91
2022-12-08T05:34:14.000Z,90.81
2022-12-08T05:35:14.000Z,90.91
2022-12-08T05:36:14.000Z,90.81
2022-12-08T05:37:14.000Z,90.81
2022-12-08T05:38:14.000Z,90.81
2022-12-08T05:39:14.000Z,90.81
2022-12-08T05:40:14.000Z,90.81
2022-12-08T05:41:14.000Z,90.81
2022-12-08T05:42:14.000Z,90.81
2022-12-08T05:43:14.000Z,90.81
2022-12-08T05:44:14.000Z,90.81
2022-12-08T05:45:14.000Z,90.81
2022-12-08T05:46:14.000Z,90.81
2022-12-08T05:47:14.000Z,90.81
2022-12-08T05:48:14.000Z,90.81
2022-12-08T05:49:14.000Z,90.81
2022-12-08T05:50:14.000Z,90.81
2022-12-08T05:51:14.000Z,90.81
2022-12-08T05:52:14.000Z,90.70
2022-12-08T05:53:14.000Z,90.70
2022-12-08T05:54:14.000Z,90.70
2022-12-08T05:55:14.000Z,90.60
2022-12-08T05:56:14.000Z,90.60
2022-12-08T05:57:14.000Z,90.50
2022-12-08T05:58:14.000Z,90.50
2022-12-08T05:59:14.000Z,90.60
2022-12-08T06:00:14.000Z,90.50
2022-12-08T06:01:14.000Z,90.39
2022-12-08T06:02:14.000Z,90.29
2022-12-08T06:03:14.000Z,90.29
2022-12-08T06:04:14.000Z,90.39
2022-12-08T06:05:14.000Z,90.29
2022-12-08T06:06:14.000Z,90.19
2022-12-08T06:07:14.000Z,90.19
2022-12-08T06:08:14.000Z,90.29
2022-12-08T06:09:14.000Z,90.29
2022-12-08T06:10:14.000Z,90.19
2022-12-08T06:11:14.000Z,90.08
2022-12-08T06:12:14.000Z,90.08
2022-12-08T06:13:14.000Z,90.19
2022-12-08T06:14:14.000Z,90.08
2022-12-08T06:15:14.000Z,90.19
2022-12-08T06:16:14.000Z,90.08
2022-12-08T06:17:14.000Z,90.19
2022-12-08T06:18:14.000Z,90.19
2022-12-08T06:19:14.000Z,90.19
2022-12-08T06:20:14.000Z,90.19
2022-12-08T06:21:14.000Z,90.19
2022-12-08T06:22:14.000Z,90.29
2022-12-08T06:23:14.000Z,90.39
2022-12-08T06:24:14.000Z,90.19
2022-12-08T06:25:14.000Z,90.23
2022-12-08T06:26:14.000Z,90.33
2022-12-08T06:27:14.000Z,90.23
2022-12-08T06:28:14.000Z,90.33
2022-12-08T06:29:14.000Z,90.44
2022-12-08T06:30:14.000Z,90.44
2022-12-08T06:31:14.000Z,90.44
2022-12-08T06:32:14.000Z,90.54
2022-12-08T06:33:14.000Z,90.64
2022-12-08T06:34:14.000Z,90.64
2022-12-08T06:35:14.000Z,90.64
2022-12-08T06:36:14.000Z,90.75
2022-12-08T06:37:14.000Z,90.75
2022-12-08T06:38:14.000Z,90.75
2022-12-08T06:39:14.000Z,90.85
2022-12-08T06:40:14.000Z,90.85
2022-12-08T06:41:14.000Z,90.95
2022-12-08T06:42:14.000Z,90.95
2022-12-08T06:43:14.000Z,90.95
2022-12-08T06:44:14.000Z,90.95
2022-12-08T06:45:14.000Z,91.06
2022-12-08T06:46:14.000Z,91.16
2022-12-08T06:47:14.000Z,91.10
2022-12-08T06:48:14.000Z,91.16
2022-12-08T06:49:14.000Z,91.10
2022-12-08T06:50:14.000Z,91.20
2022-12-08T06:50:14.000Z,91.20
2022-12-08T06:51:14.000Z,91.20
2022-12-08T06:51:14.000Z,91.20
2022-12-08T06:52:14.000Z,91.20
2022-12-08T06:52:14.000Z,91.20
2022-12-08T06:53:14.000Z,91.20
2022-12-08T06:53:14.000Z,91.20
2022-12-08T06:54:14.000Z,91.31
2022-12-08T06:54:14.000Z,91.31
2022-12-08T06:55:14.000Z,91.31
2022-12-08T06:56:14.000Z,91.31
2022-12-08T06:57:14.000Z,91.41
2022-12-08T06:58:14.000Z,91.41
2022-12-08T06:59:14.000Z,91.52
2022-12-08T07:00:14.000Z,91.41
2022-12-08T07:01:14.000Z,91.52
2022-12-08T07:02:14.000Z,91.62
2022-12-08T07:03:14.000Z,91.62
2022-12-08T07:04:14.000Z,91.72
2022-12-08T07:05:14.000Z,91.83
2022-12-08T07:06:14.000Z,91.83
2022-12-08T07:07:14.000Z,91.83
2022-12-08T07:08:14.000Z,91.83
2022-12-08T07:09:14.000Z,91.83
2022-12-08T07:10:14.000Z,91.93
2022-12-08T07:11:13.000Z,91.93
2022-12-08T07:12:13.000Z,91.93
2022-12-08T07:13:13.000Z,92.03
2022-12-08T07:14:13.000Z,92.14
2022-12-08T07:15:13.000Z,92.14
2022-12-08T07:16:13.000Z,92.24
2022-12-08T07:17:13.000Z,92.24
2022-12-08T07:18:13.000Z,92.24
2022-12-08T07:19:13.000Z,92.14
2022-12-08T07:20:13.000Z,92.24
2022-12-08T07:21:13.000Z,92.35
2022-12-08T07:22:13.000Z,92.35
2022-12-08T07:23:13.000Z,92.24
2022-12-08T07:24:13.000Z,92.14
2022-12-08T07:25:13.000Z,92.14
2022-12-08T07:26:13.000Z,92.14
2022-12-08T07:27:13.000Z,92.03
2022-12-08T07:28:13.000Z,92.03
2022-12-08T07:29:13.000Z,92.03
2022-12-08T07:30:13.000Z,92.03
2022-12-08T07:31:13.000Z,92.14
2022-12-08T07:32:13.000Z,92.24
2022-12-08T07:33:13.000Z,92.14
2022-12-08T07:34:13.000Z,91.89
2022-12-08T07:35:13.000Z,91.78
2022-12-08T07:36:13.000Z,91.58
2022-12-08T07:37:13.000Z,91.47
2022-12-08T07:38:13.000Z,91.58
2022-12-08T07:39:13.000Z,91.68
2022-12-08T07:40:13.000Z,91.68
2022-12-08T07:40:13.000Z,91.68
2022-12-08T07:41:13.000Z,91.68
2022-12-08T07:41:13.000Z,91.68
2022-12-08T07:42:13.000Z,91.68
2022-12-08T07:42:13.000Z,91.68
2022-12-08T07:43:13.000Z,91.68
2022-12-08T07:43:13.000Z,91.68
2022-12-08T07:44:13.000Z,91.58
2022-12-08T07:44:13.000Z,91.58
2022-12-08T07:45:13.000Z,91.68
2022-12-08T07:46:13.000Z,91.47
2022-12-08T07:47:13.000Z,91.47
2022-12-08T07:48:13.000Z,91.37
2022-12-08T07:49:13.000Z,91.33
2022-12-08T07:50:13.000Z,91.43
2022-12-08T07:51:13.000Z,90.91
2022-12-08T07:52:13.000Z,90.70
2022-12-08T07:53:13.000Z,90.91
2022-12-08T07:54:13.000Z,90.91
2022-12-08T07:55:13.000Z,90.70
2022-12-08T07:56:13.000Z,90.91
2022-12-08T07:57:13.000Z,90.81
2022-12-08T07:58:13.000Z,90.39
2022-12-08T07:59:13.000Z,90.29
2022-12-08T08:00:13.000Z,90.29
2022-12-08T08:01:13.000Z,90.19
2022-12-08T08:02:13.000Z,90.19
2022-12-08T08:03:13.000Z,90.08
2022-12-08T08:04:13.000Z,90.29
2022-12-08T08:05:13.000Z,90.29
2022-12-08T08:06:13.000Z,90.25
2022-12-08T08:07:13.000Z,90.04
2022-12-08T08:08:13.000Z,89.83
2022-12-08T08:09:13.000Z,89.62
2022-12-08T08:10:13.000Z,89.73
2022-12-08T08:11:13.000Z,89.42
2022-12-08T08:12:13.000Z,89.31
2022-12-08T08:13:13.000Z,89.52
2022-12-08T08:14:13.000Z,89.73
2022-12-08T08:15:13.000Z,89.83
2022-12-08T08:16:13.000Z,89.58
2022-12-08T08:17:13.000Z,89.58
2022-12-08T08:18:13.000Z,89.58
2022-12-08T08:19:13.000Z,89.48
2022-12-08T08:20:13.000Z,89.17
2022-12-08T08:21:13.000Z,89.17
2022-12-08T08:22:13.000Z,89.27
2022-12-08T08:23:13.000Z,89.27
2022-12-08T08:24:13.000Z,89.17
2022-12-08T08:25:13.000Z,89.17
2022-12-08T08:26:13.000Z,89.13
2022-12-08T08:27:13.000Z,89.13
2022-12-08T08:28:13.000Z,88.61
2022-12-08T08:29:13.000Z,88.09
2022-12-08T08:30:13.000Z,87.99
2022-12-08T08:31:13.000Z,87.26
2022-12-08T08:32:13.000Z,87.57
2022-12-08T08:33:13.000Z,87.37
2022-12-08T08:34:13.000Z,86.64
2022-12-08T08:35:13.000Z,86.54
2022-12-08T08:36:13.000Z,86.64
2022-12-08T08:37:13.000Z,86.91
2022-12-08T08:38:13.000Z,87.12
2022-12-08T08:39:13.000Z,86.70
2022-12-08T08:40:13.000Z,86.29
2022-12-08T08:41:13.000Z,86.29
2022-12-08T08:42:13.000Z,86.15
2022-12-08T08:43:13.000Z,86.66
2022-12-08T08:44:13.000Z,86.45
2022-12-08T08:45:13.000Z,85.83
2022-12-08T08:46:13.000Z,85.73
2022-12-08T08:47:13.000Z,85.83
2022-12-08T08:48:13.000Z,85.38
2022-12-08T08:49:13.000Z,85.58
2022-12-08T08:50:13.000Z,85.58
2022-12-08T08:51:13.000Z,85.48
2022-12-08T08:52:13.000Z,85.17
2022-12-08T08:53:13.000Z,84.75
2022-12-08T08:54:13.000Z,84.96
2022-12-08T08:55:20.000Z,84.75
2022-12-08T08:56:13.000Z,84.55
2022-12-08T08:57:13.000Z,84.96
2022-12-08T08:58:13.000Z,84.44
2022-12-08T08:59:12.000Z,84.44
2022-12-08T09:00:12.000Z,84.55
2022-12-08T09:01:12.000Z,84.75
2022-12-08T09:02:12.000Z,84.13
2022-12-08T09:03:12.000Z,84.03
2022-12-08T09:04:12.000Z,84.20
2022-12-08T09:05:12.000Z,84.09
2022-12-08T09:06:12.000Z,84.09
2022-12-08T09:07:12.000Z,84.30
2022-12-08T09:08:12.000Z,84.30
2022-12-08T09:09:12.000Z,83.68
2022-12-08T09:10:12.000Z,83.58
2022-12-08T09:11:12.000Z,83.54
2022-12-08T09:12:12.000Z,83.85
2022-12-08T09:13:12.000Z,83.33
2022-12-08T09:14:12.000Z,83.02
2022-12-08T09:15:12.000Z,83.02
2022-12-08T09:16:12.000Z,83.44
2022-12-08T09:17:12.000Z,83.75
2022-12-08T09:18:12.000Z,83.23
2022-12-08T09:19:12.000Z,83.33
2022-12-08T09:20:12.000Z,82.50
2022-12-08T09:21:12.000Z,82.60
2022-12-08T09:22:12.000Z,82.60
2022-12-08T09:23:12.000Z,82.98
2022-12-08T09:24:12.000Z,83.40
2022-12-08T09:25:12.000Z,82.88
2022-12-08T09:26:12.000Z,82.60
2022-12-08T09:27:12.000Z,83.02
2022-12-08T09:28:12.000Z,82.88
2022-12-08T09:29:12.000Z,82.46
2022-12-08T09:30:12.000Z,82.46
2022-12-08T09:31:12.000Z,82.09
2022-12-08T09:32:12.000Z,82.15
2022-12-08T09:33:12.000Z,82.26
2022-12-08T09:34:12.000Z,82.67
2022-12-08T09:35:12.000Z,83.09
2022-12-08T09:36:12.000Z,82.98
2022-12-08T09:37:12.000Z,83.19
2022-12-08T09:38:12.000Z,83.40
2022-12-08T09:39:12.000Z,82.67
2022-12-08T09:40:12.000Z,82.26
2022-12-08T09:41:12.000Z,82.26
2022-12-08T09:42:12.000Z,82.36
2022-12-08T09:43:12.000Z,81.95
2022-12-08T09:44:12.000Z,82.05
2022-12-08T09:45:12.000Z,81.95
2022-12-08T09:46:12.000Z,82.15
2022-12-08T09:47:12.000Z,82.74
2022-12-08T09:48:12.000Z,83.05
2022-12-08T09:49:12.000Z,82.43
2022-12-08T09:50:12.000Z,82.80
2022-12-08T09:51:12.000Z,82.60
2022-12-08T09:52:12.000Z,81.98
2022-12-08T09:53:12.000Z,82.29
2022-12-08T09:54:12.000Z,82.50
2022-12-08T09:55:12.000Z,82.66
2022-12-08T09:56:12.000Z,82.76
2022-12-08T09:57:12.000Z,82.35
2022-12-08T09:58:12.000Z,81.59
2022-12-08T09:59:12.000Z,81.49
2022-12-08T10:00:12.000Z,81.49
2022-12-08T10:01:12.000Z,81.70
2022-12-08T10:02:12.000Z,80.66
2022-12-08T10:03:12.000Z,80.56
2022-12-08T10:04:12.000Z,80.25
2022-12-08T10:05:12.000Z,80.73
2022-12-08T10:06:12.000Z,80.00
2022-12-08T10:07:12.000Z,79.38
2022-12-08T10:08:12.000Z,79.49
2022-12-08T10:09:12.000Z,79.49
2022-12-08T10:10:12.000Z,79.18
2022-12-08T10:11:12.000Z,78.66
2022-12-08T10:12:12.000Z,78.77
2022-12-08T10:13:12.000Z,79.08
2022-12-08T10:14:12.000Z,79.59
2022-12-08T10:15:12.000Z,79.38
2022-12-08T10:16:12.000Z,79.80
2022-12-08T10:17:12.000Z,80.21
2022-12-08T10:18:12.000Z,79.69
2022-12-08T10:19:12.000Z,80.11
2022-12-08T10:20:12.000Z,80.11
2022-12-08T10:21:12.000Z,78.87
2022-12-08T10:22:12.000Z,78.97
2022-12-08T10:23:12.000Z,79.18
2022-12-08T10:24:12.000Z,79.08
2022-12-08T10:25:12.000Z,78.77
2022-12-08T10:26:12.000Z,79.28
2022-12-08T10:27:12.000Z,80.00
2022-12-08T10:28:12.000Z,79.49
2022-12-08T10:29:12.000Z,79.32
2022-12-08T10:30:12.000Z,79.73
2022-12-08T10:31:12.000Z,79.73
2022-12-08T10:32:12.000Z,79.83
2022-12-08T10:33:12.000Z,79.59
2022-12-08T10:34:12.000Z,78.80
2022-12-08T10:35:12.000Z,79.01
2022-12-08T10:36:12.000Z,79.32
2022-12-08T10:37:12.000Z,79.42
2022-12-08T10:38:12.000Z,79.01
2022-12-08T10:39:12.000Z,79.18
2022-12-08T10:40:12.000Z,78.59
2022-12-08T10:41:12.000Z,78.80
2022-12-08T10:42:12.000Z,78.97
2022-12-08T10:43:12.000Z,79.18
2022-12-08T10:44:12.000Z,79.08
2022-12-08T10:45:11.000Z,78.77
2022-12-08T10:46:11.000Z,78.14
2022-12-08T10:47:11.000Z,78.35
2022-12-08T10:48:11.000Z,78.14
2022-12-08T10:49:11.000Z,77.70
2022-12-08T10:50:11.000Z,77.39
2022-12-08T10:51:11.000Z,77.18
2022-12-08T10:52:11.000Z,76.87
2022-12-08T10:53:11.000Z,77.08
2022-12-08T10:54:11.000Z,76.67
2022-12-08T10:55:11.000Z,77.18
2022-12-08T10:56:11.000Z,77.08
2022-12-08T10:57:11.000Z,77.59
2022-12-08T10:58:11.000Z,77.08
2022-12-08T10:59:11.000Z,77.18
2022-12-08T11:00:11.000Z,77.49
2022-12-08T11:01:11.000Z,76.87
2022-12-08T11:02:11.000Z,76.77
2022-12-08T11:03:11.000Z,76.87
2022-12-08T11:04:11.000Z,77.08
2022-12-08T11:05:11.000Z,76.77
2022-12-08T11:06:11.000Z,76.67
2022-12-08T11:07:11.000Z,76.87
2022-12-08T11:08:11.000Z,77.18
2022-12-08T11:09:11.000Z,77.39
2022-12-08T11:10:11.000Z,77.28
2022-12-08T11:11:11.000Z,77.49
2022-12-08T11:12:11.000Z,77.49
2022-12-08T11:13:11.000Z,77.70
2022-12-08T11:14:11.000Z,76.67
2022-12-08T11:15:11.000Z,76.25
2022-12-08T11:16:11.000Z,76.67
2022-12-08T11:17:11.000Z,76.67
2022-12-08T11:18:11.000Z,76.35
2022-12-08T11:19:11.000Z,76.01
2022-12-08T11:20:11.000Z,76.42
2022-12-08T11:21:11.000Z,76.21
2022-12-08T11:22:11.000Z,76.12
2022-12-08T11:23:11.000Z,75.49
2022-12-08T11:24:11.000Z,75.36
2022-12-08T11:25:11.000Z,75.67
2022-12-08T11:26:11.000Z,75.15
2022-12-08T11:27:11.000Z,75.15
2022-12-08T11:28:11.000Z,75.67
2022-12-08T11:29:11.000Z,75.05
2022-12-08T11:30:11.000Z,74.84
2022-12-08T11:31:11.000Z,75.01
2022-12-08T11:32:11.000Z,74.91
2022-12-08T11:33:11.000Z,74.80
2022-12-08T11:34:11.000Z,75.01
2022-12-08T11:35:11.000Z,73.88
2022-12-08T11:36:11.000Z,73.98
2022-12-08T11:37:11.000Z,73.88
2022-12-08T11:38:11.000Z,73.88
2022-12-08T11:39:11.000Z,73.68
2022-12-08T11:40:11.000Z,73.26
2022-12-08T11:41:11.000Z,72.78
2022-12-08T11:42:11.000Z,73.19
2022-12-08T11:43:11.000Z,73.50
2022-12-08T11:44:11.000Z,73.64
2022-12-08T11:45:11.000Z,74.05
2022-12-08T11:46:11.000Z,74.15
2022-12-08T11:47:11.000Z,74.26
2022-12-08T11:48:11.000Z,74.36
2022-12-08T11:49:11.000Z,73.95
2022-12-08T11:50:11.000Z,73.88
2022-12-08T11:51:11.000Z,74.08
2022-12-08T11:52:11.000Z,74.19
2022-12-08T11:53:11.000Z,73.98
2022-12-08T11:54:11.000Z,74.40
2022-12-08T11:55:11.000Z,74.60
2022-12-08T11:56:11.000Z,74.60
2022-12-08T11:57:11.000Z,74.74
2022-12-08T11:58:11.000Z,74.81
2022-12-08T11:59:11.000Z,74.84
2022-12-08T12:00:11.000Z,74.63
2022-12-08T12:00:11.000Z,74.63
2022-12-08T12:01:11.000Z,74.84
2022-12-08T12:01:11.000Z,74.84
2022-12-08T12:02:11.000Z,74.84
2022-12-08T12:02:11.000Z,74.84
2022-12-08T12:03:11.000Z,75.26
2022-12-08T12:03:11.000Z,75.26
2022-12-08T12:04:11.000Z,75.87
2022-12-08T12:04:11.000Z,75.87
2022-12-08T12:05:11.000Z,76.70
2022-12-08T12:06:11.000Z,76.60
2022-12-08T12:07:11.000Z,76.29
2022-12-08T12:08:11.000Z,76.50
2022-12-08T12:09:11.000Z,76.39
2022-12-08T12:10:11.000Z,76.81
2022-12-08T12:11:11.000Z,76.39
2022-12-08T12:12:11.000Z,76.81
2022-12-08T12:13:11.000Z,76.90
2022-12-08T12:14:11.000Z,76.90
2022-12-08T12:15:11.000Z,76.29
2022-12-08T12:16:11.000Z,76.39
2022-12-08T12:17:11.000Z,76.08
2022-12-08T12:18:11.000Z,76.08
2022-12-08T12:19:11.000Z,75.87
2022-12-08T12:20:11.000Z,75.91
2022-12-08T12:21:11.000Z,76.01
2022-12-08T12:22:11.000Z,75.81
2022-12-08T12:23:11.000Z,76.01
2022-12-08T12:24:11.000Z,76.01
2022-12-08T12:25:11.000Z,76.12
2022-12-08T12:26:11.000Z,76.32
2022-12-08T12:27:11.000Z,76.32
2022-12-08T12:28:11.000Z,76.43
2022-12-08T12:29:11.000Z,76.32
2022-12-08T12:30:10.000Z,76.22
2022-12-08T12:30:10.000Z,76.22
2022-12-08T12:31:10.000Z,76.22